Welcome to Des Moines Iowa Weather. I am an independent private personal weather station on the Northwest Side of Des Moines, Iowa. Just East of Windsor Heights and just West of Glendale . This site is also mobile friendly.

There are no active watches, warnings or advisories


Visit our other weather sites:

Historical Data

Weather Station Setup



Weather Underground History page Text

Daily Summary for January 29, 2018 Units:  English    Metric   Both
« Previous Day
Next Day »
Daily Weekly Monthly Yearly Custom
  High: Low: Average:
Temperature: 24.6 °F 14.0 °F 18.4 °F
Dew Point: 14.0 °F 10.0 °F 11.6 °F
Humidity: 85 % 61 % 75 %
Wind Speed: 7.0 mph 0.0 mph 1.7 mph
Wind Gust: 11.0 mph - -
Wind:- - NNE
Pressure: 30.68 in 30.56 in -
Precipitation: 0.00 in    
Historical Graphs
 
 
Tabular Data for January 29, 2018
Time Temperature Dew Point Pressure Wind Wind Speed Wind Gust Humidity Rainfall Rate (Hourly)
00:13 17.0 °F 11.0 °F 30.60 in North 4.0 mph 8.0 mph 78 % 0.00 in
00:28 16.8 °F 11.0 °F 30.61 in North 3.0 mph 8.0 mph 78 % 0.00 in
00:43 16.5 °F 11.0 °F 30.61 in NNE 5.0 mph 11.0 mph 78 % 0.00 in
00:58 16.1 °F 11.0 °F 30.61 in North 4.0 mph 11.0 mph 79 % 0.00 in
01:13 15.8 °F 11.0 °F 30.61 in Calm   9.0 mph 80 % 0.00 in
01:28 15.6 °F 11.0 °F 30.60 in North 1.0 mph 9.0 mph 80 % 0.00 in
01:43 15.4 °F 10.0 °F 30.60 in North 3.0 mph 8.0 mph 80 % 0.00 in
01:58 14.9 °F 10.0 °F 30.60 in North 2.0 mph 5.0 mph 81 % 0.00 in
02:13 14.5 °F 10.0 °F 30.61 in North 2.0 mph 4.0 mph 81 % 0.00 in
02:28 14.3 °F 10.0 °F 30.61 in North 1.0 mph 5.0 mph 82 % 0.00 in
02:48 14.2 °F 10.0 °F 30.61 in North 2.0 mph 5.0 mph 83 % 0.00 in
02:59 14.1 °F 10.0 °F 30.61 in Calm   5.0 mph 84 % 0.00 in
03:17 14.0 °F 10.0 °F 30.61 in North 2.0 mph 6.0 mph 84 % 0.00 in
03:29 14.1 °F 10.0 °F 30.61 in Calm   5.0 mph 85 % 0.00 in
03:44 14.2 °F 11.0 °F 30.62 in Calm   5.0 mph 85 % 0.00 in
03:59 14.3 °F 11.0 °F 30.61 in North 2.0 mph 6.0 mph 85 % 0.00 in
04:14 14.4 °F 11.0 °F 30.61 in North 1.0 mph 6.0 mph 85 % 0.00 in
04:29 14.5 °F 11.0 °F 30.61 in North 1.0 mph 4.0 mph 84 % 0.00 in
04:44 14.5 °F 11.0 °F 30.61 in North 1.0 mph 6.0 mph 84 % 0.00 in
04:59 14.7 °F 10.0 °F 30.62 in North 1.0 mph 6.0 mph 83 % 0.00 in
05:14 14.8 °F 11.0 °F 30.62 in North 6.0 mph 6.0 mph 83 % 0.00 in
05:29 14.9 °F 11.0 °F 30.63 in North 2.0 mph 6.0 mph 83 % 0.00 in
05:44 14.9 °F 11.0 °F 30.63 in North 2.0 mph 8.0 mph 83 % 0.00 in
05:59 15.1 °F 11.0 °F 30.63 in North 3.0 mph 10.0 mph 83 % 0.00 in
06:14 15.4 °F 11.0 °F 30.63 in North 4.0 mph 9.0 mph 83 % 0.00 in
06:29 15.7 °F 11.0 °F 30.63 in North 4.0 mph 8.0 mph 82 % 0.00 in
06:44 15.9 °F 11.0 °F 30.63 in North 4.0 mph 10.0 mph 82 % 0.00 in
06:59 15.8 °F 11.0 °F 30.63 in North 2.0 mph 8.0 mph 82 % 0.00 in
07:14 15.7 °F 11.0 °F 30.63 in North 3.0 mph 6.0 mph 82 % 0.00 in
07:29 15.5 °F 11.0 °F 30.63 in North 4.0 mph 6.0 mph 82 % 0.00 in
07:44 15.4 °F 11.0 °F 30.64 in North 3.0 mph 6.0 mph 82 % 0.00 in
07:59 15.2 °F 11.0 °F 30.64 in North 4.0 mph 6.0 mph 82 % 0.00 in
08:14 14.9 °F 10.0 °F 30.65 in North 3.0 mph 9.0 mph 82 % 0.00 in
08:29 14.8 °F 10.0 °F 30.66 in North 3.0 mph 6.0 mph 82 % 0.00 in
08:44 14.8 °F 10.0 °F 30.66 in North 2.0 mph 8.0 mph 82 % 0.00 in
08:59 14.8 °F 10.0 °F 30.66 in North 4.0 mph 9.0 mph 82 % 0.00 in
09:14 14.9 °F 10.0 °F 30.66 in North 2.0 mph 5.0 mph 82 % 0.00 in
09:29 15.1 °F 11.0 °F 30.66 in North 1.0 mph 9.0 mph 82 % 0.00 in
09:44 15.4 °F 11.0 °F 30.66 in North 2.0 mph 4.0 mph 82 % 0.00 in
09:59 15.4 °F 10.0 °F 30.66 in North 3.0 mph 9.0 mph 80 % 0.00 in
10:14 16.0 °F 11.0 °F 30.66 in NNE 2.0 mph 9.0 mph 79 % 0.00 in
10:29 16.8 °F 11.0 °F 30.67 in Calm   8.0 mph 77 % 0.00 in
10:45 17.8 °F 11.0 °F 30.67 in NNE 3.0 mph 8.0 mph 76 % 0.00 in
11:00 18.1 °F 11.0 °F 30.68 in North 4.0 mph 10.0 mph 73 % 0.00 in
11:15 19.0 °F 12.0 °F 30.67 in North 4.0 mph 6.0 mph 73 % 0.00 in
11:30 19.1 °F 12.0 °F 30.67 in Calm   9.0 mph 73 % 0.00 in
11:45 19.4 °F 11.0 °F 30.66 in North 2.0 mph 6.0 mph 71 % 0.00 in
12:00 20.2 °F 12.0 °F 30.64 in North 4.0 mph 8.0 mph 71 % 0.00 in
12:15 20.7 °F 12.0 °F 30.63 in Calm   8.0 mph 69 % 0.00 in
12:30 22.0 °F 13.0 °F 30.62 in NNE 2.0 mph 5.0 mph 67 % 0.00 in
12:45 22.9 °F 13.0 °F 30.61 in North 5.0 mph 5.0 mph 65 % 0.00 in
13:00 23.3 °F 14.0 °F 30.60 in North 1.0 mph 6.0 mph 67 % 0.00 in
13:15 23.3 °F 12.0 °F 30.60 in North 1.0 mph 5.0 mph 63 % 0.00 in
13:30 24.2 °F 14.0 °F 30.59 in North 1.0 mph 6.0 mph 64 % 0.00 in
13:45 24.2 °F 13.0 °F 30.59 in North 3.0 mph 8.0 mph 63 % 0.00 in
14:00 24.6 °F 14.0 °F 30.59 in Calm   6.0 mph 64 % 0.00 in
14:15 24.3 °F 13.0 °F 30.58 in North 1.0 mph 5.0 mph 62 % 0.00 in
14:30 24.1 °F 13.0 °F 30.58 in North 7.0 mph 9.0 mph 63 % 0.00 in
14:45 24.0 °F 13.0 °F 30.59 in North 1.0 mph 9.0 mph 62 % 0.00 in
15:00 24.3 °F 13.0 °F 30.59 in North 4.0 mph 8.0 mph 62 % 0.00 in
15:15 23.8 °F 12.0 °F 30.59 in North 2.0 mph 8.0 mph 61 % 0.00 in
15:30 24.0 °F 12.0 °F 30.58 in North 4.0 mph 9.0 mph 61 % 0.00 in
15:45 24.5 °F 13.0 °F 30.58 in North 1.0 mph 6.0 mph 62 % 0.00 in
16:00 24.0 °F 13.0 °F 30.58 in North 2.0 mph 5.0 mph 62 % 0.00 in
16:15 23.9 °F 12.0 °F 30.58 in North 3.0 mph 5.0 mph 62 % 0.00 in
16:30 23.8 °F 12.0 °F 30.58 in North 1.0 mph 8.0 mph 62 % 0.00 in
16:45 23.7 °F 13.0 °F 30.58 in North 1.0 mph 2.0 mph 63 % 0.00 in
17:00 23.4 °F 13.0 °F 30.58 in North 2.0 mph 4.0 mph 64 % 0.00 in
17:15 23.1 °F 13.0 °F 30.59 in North 3.0 mph 5.0 mph 64 % 0.00 in
17:30 22.8 °F 13.0 °F 30.59 in North 1.0 mph 6.0 mph 65 % 0.00 in
17:45 22.5 °F 13.0 °F 30.59 in Calm   3.0 mph 66 % 0.00 in
18:00 22.1 °F 13.0 °F 30.60 in North 2.0 mph 2.0 mph 67 % 0.00 in
18:15 21.8 °F 13.0 °F 30.60 in North 1.0 mph 3.0 mph 68 % 0.00 in
18:30 21.6 °F 13.0 °F 30.60 in Calm   2.0 mph 69 % 0.00 in
18:45 21.3 °F 13.0 °F 30.60 in Calm   2.0 mph 70 % 0.00 in
19:00 20.9 °F 13.0 °F 30.60 in Calm   3.0 mph 71 % 0.00 in
19:15 20.7 °F 13.0 °F 30.60 in Calm     71 % 0.00 in
19:30 20.3 °F 13.0 °F 30.60 in Calm     72 % 0.00 in
19:45 19.9 °F 13.0 °F 30.59 in Calm   1.0 mph 73 % 0.00 in
20:00 19.6 °F 12.0 °F 30.59 in Calm     73 % 0.00 in
20:15 19.3 °F 12.0 °F 30.59 in Calm     74 % 0.00 in
20:30 19.0 °F 12.0 °F 30.59 in Calm     75 % 0.00 in
20:45 18.8 °F 12.0 °F 30.58 in Calm     76 % 0.00 in
21:00 18.6 °F 13.0 °F 30.57 in Calm     77 % 0.00 in
21:15 18.4 °F 12.0 °F 30.57 in Calm     77 % 0.00 in
21:30 18.1 °F 12.0 °F 30.57 in Calm   2.0 mph 78 % 0.00 in
21:45 18.0 °F 13.0 °F 30.58 in Calm     79 % 0.00 in
22:00 17.8 °F 12.0 °F 30.58 in Calm     79 % 0.00 in
22:15 17.6 °F 12.0 °F 30.57 in Calm     79 % 0.00 in
22:30 17.2 °F 12.0 °F 30.57 in Calm     79 % 0.00 in
22:45 16.8 °F 11.0 °F 30.57 in Calm     79 % 0.00 in
23:00 16.5 °F 11.0 °F 30.57 in Calm     80 % 0.00 in
23:15 16.1 °F 11.0 °F 30.57 in Calm     81 % 0.00 in
23:30 15.9 °F 11.0 °F 30.56 in Calm   1.0 mph 82 % 0.00 in
23:45 15.8 °F 11.0 °F 30.56 in Calm   1.0 mph 82 % 0.00 in
Des Moines Weather and Climate
Compliments of Weather Underground - 3 mb

Script developed by  Jim McMurry - jmcmurry@mwt.net Adapted for the template by  Wim van der Kuil - Leuven-Template.eu

You find our weather info also at:

Weather Underground

Equipment we use:

Weather-station
Davis VP2 Plus

Weather-program
Davis Weatherlink.Com

Weather-server
iMac (Retina 4K, 21.5-inch, Late 2015)

Provider
Hostmonster.com

Davis VP2 Plus

Davis Weatherlink.Com

iMac (Retina 4K, 21.5-inch, Late 2015)

Hostmonster.com